sensor_id;sensor_type;location;lat;lon;timestamp;P1;durP1;ratioP1;P2;durP2;ratioP2
30543;SDS011;43388;46.308;4.600;2022-08-19T00:01:38;5.60;;;5.10;;
30543;SDS011;43388;46.308;4.600;2022-08-19T00:04:08;5.57;;;5.10;;
30543;SDS011;43388;46.308;4.600;2022-08-19T00:06:36;5.30;;;4.90;;
30543;SDS011;43388;46.308;4.600;2022-08-19T00:09:03;5.20;;;4.85;;
30543;SDS011;43388;46.308;4.600;2022-08-19T00:11:30;5.68;;;5.28;;
30543;SDS011;43388;46.308;4.600;2022-08-19T00:13:56;6.78;;;5.22;;
30543;SDS011;43388;46.308;4.600;2022-08-19T00:16:22;5.85;;;5.45;;
30543;SDS011;43388;46.308;4.600;2022-08-19T00:18:49;6.22;;;5.72;;
30543;SDS011;43388;46.308;4.600;2022-08-19T00:21:15;8.13;;;6.22;;
30543;SDS011;43388;46.308;4.600;2022-08-19T00:23:41;10.50;;;6.78;;
30543;SDS011;43388;46.308;4.600;2022-08-19T00:26:08;8.00;;;7.20;;
30543;SDS011;43388;46.308;4.600;2022-08-19T00:28:34;8.57;;;7.70;;
30543;SDS011;43388;46.308;4.600;2022-08-19T00:31:01;8.68;;;7.88;;
30543;SDS011;43388;46.308;4.600;2022-08-19T00:33:28;7.60;;;7.00;;
30543;SDS011;43388;46.308;4.600;2022-08-19T00:35:57;8.73;;;6.80;;
30543;SDS011;43388;46.308;4.600;2022-08-19T00:38:23;7.20;;;6.45;;
30543;SDS011;43388;46.308;4.600;2022-08-19T00:40:49;7.15;;;6.32;;
30543;SDS011;43388;46.308;4.600;2022-08-19T00:43:18;6.47;;;5.97;;
30543;SDS011;43388;46.308;4.600;2022-08-19T00:45:44;8.48;;;6.90;;
30543;SDS011;43388;46.308;4.600;2022-08-19T00:48:10;6.65;;;6.07;;
30543;SDS011;43388;46.308;4.600;2022-08-19T00:50:38;7.65;;;6.80;;
30543;SDS011;43388;46.308;4.600;2022-08-19T00:53:05;6.13;;;5.60;;
30543;SDS011;43388;46.308;4.600;2022-08-19T00:55:31;6.20;;;5.72;;
30543;SDS011;43388;46.308;4.600;2022-08-19T00:58:00;8.45;;;4.80;;
30543;SDS011;43388;46.308;4.600;2022-08-19T01:00:27;5.20;;;4.80;;
30543;SDS011;43388;46.308;4.600;2022-08-19T01:02:54;5.57;;;5.07;;
30543;SDS011;43388;46.308;4.600;2022-08-19T01:05:21;5.63;;;5.22;;
30543;SDS011;43388;46.308;4.600;2022-08-19T01:07:48;5.10;;;4.60;;
30543;SDS011;43388;46.308;4.600;2022-08-19T01:10:17;5.47;;;4.97;;
30543;SDS011;43388;46.308;4.600;2022-08-19T01:12:45;4.88;;;4.43;;
30543;SDS011;43388;46.308;4.600;2022-08-19T01:15:12;5.25;;;4.75;;
30543;SDS011;43388;46.308;4.600;2022-08-19T01:17:40;5.72;;;4.85;;
30543;SDS011;43388;46.308;4.600;2022-08-19T01:20:07;5.78;;;4.68;;
30543;SDS011;43388;46.308;4.600;2022-08-19T01:22:45;5.90;;;5.35;;
30543;SDS011;43388;46.308;4.600;2022-08-19T01:25:12;4.68;;;4.28;;
30543;SDS011;43388;46.308;4.600;2022-08-19T01:27:39;4.80;;;4.03;;
30543;SDS011;43388;46.308;4.600;2022-08-19T01:30:06;4.22;;;3.88;;
30543;SDS011;43388;46.308;4.600;2022-08-19T01:32:32;4.55;;;3.90;;
30543;SDS011;43388;46.308;4.600;2022-08-19T01:35:00;4.38;;;4.07;;
30543;SDS011;43388;46.308;4.600;2022-08-19T01:37:27;4.60;;;4.18;;
30543;SDS011;43388;46.308;4.600;2022-08-19T01:39:55;6.93;;;4.35;;
30543;SDS011;43388;46.308;4.600;2022-08-19T01:42:21;4.95;;;3.83;;
30543;SDS011;43388;46.308;4.600;2022-08-19T01:44:47;4.60;;;4.20;;
30543;SDS011;43388;46.308;4.600;2022-08-19T01:47:13;5.07;;;3.92;;
30543;SDS011;43388;46.308;4.600;2022-08-19T01:49:41;5.32;;;3.67;;
30543;SDS011;43388;46.308;4.600;2022-08-19T01:52:07;4.30;;;3.90;;
30543;SDS011;43388;46.308;4.600;2022-08-19T01:54:33;8.20;;;4.55;;
30543;SDS011;43388;46.308;4.600;2022-08-19T01:57:06;4.28;;;3.97;;
30543;SDS011;43388;46.308;4.600;2022-08-19T01:59:34;4.70;;;4.30;;
30543;SDS011;43388;46.308;4.600;2022-08-19T02:02:01;5.85;;;3.75;;
30543;SDS011;43388;46.308;4.600;2022-08-19T02:04:28;5.68;;;3.60;;
30543;SDS011;43388;46.308;4.600;2022-08-19T02:06:54;4.53;;;3.47;;
30543;SDS011;43388;46.308;4.600;2022-08-19T02:09:20;3.85;;;3.55;;
30543;SDS011;43388;46.308;4.600;2022-08-19T02:11:46;3.95;;;3.55;;
30543;SDS011;43388;46.308;4.600;2022-08-19T02:14:12;3.35;;;3.05;;
30543;SDS011;43388;46.308;4.600;2022-08-19T02:16:38;4.68;;;3.78;;
30543;SDS011;43388;46.308;4.600;2022-08-19T02:19:05;5.43;;;3.92;;
30543;SDS011;43388;46.308;4.600;2022-08-19T02:21:31;5.03;;;3.83;;
30543;SDS011;43388;46.308;4.600;2022-08-19T02:23:57;4.20;;;3.70;;
30543;SDS011;43388;46.308;4.600;2022-08-19T02:26:24;4.60;;;4.20;;
30543;SDS011;43388;46.308;4.600;2022-08-19T02:28:51;4.60;;;4.05;;
30543;SDS011;43388;46.308;4.600;2022-08-19T02:31:19;4.82;;;4.30;;
30543;SDS011;43388;46.308;4.600;2022-08-19T02:33:46;10.20;;;4.47;;
30543;SDS011;43388;46.308;4.600;2022-08-19T02:36:12;5.15;;;4.53;;
30543;SDS011;43388;46.308;4.600;2022-08-19T02:38:39;10.05;;;5.63;;
30543;SDS011;43388;46.308;4.600;2022-08-19T02:41:07;5.30;;;4.80;;
30543;SDS011;43388;46.308;4.600;2022-08-19T02:43:35;5.32;;;4.80;;
30543;SDS011;43388;46.308;4.600;2022-08-19T02:46:10;6.97;;;5.75;;
30543;SDS011;43388;46.308;4.600;2022-08-19T02:51:02;6.03;;;5.55;;
30543;SDS011;43388;46.308;4.600;2022-08-19T02:53:30;8.18;;;6.00;;
30543;SDS011;43388;46.308;4.600;2022-08-19T02:55:56;7.80;;;5.57;;
30543;SDS011;43388;46.308;4.600;2022-08-19T02:58:23;7.07;;;5.57;;
30543;SDS011;43388;46.308;4.600;2022-08-19T03:00:50;5.88;;;5.28;;
30543;SDS011;43388;46.308;4.600;2022-08-19T03:03:17;7.18;;;6.10;;
30543;SDS011;43388;46.308;4.600;2022-08-19T03:05:44;6.00;;;5.43;;
30543;SDS011;43388;46.308;4.600;2022-08-19T03:08:10;7.47;;;6.55;;
30543;SDS011;43388;46.308;4.600;2022-08-19T03:10:46;6.93;;;5.72;;
30543;SDS011;43388;46.308;4.600;2022-08-19T03:13:14;7.25;;;5.85;;
30543;SDS011;43388;46.308;4.600;2022-08-19T03:15:44;8.25;;;5.88;;
30543;SDS011;43388;46.308;4.600;2022-08-19T03:18:10;6.28;;;5.70;;
30543;SDS011;43388;46.308;4.600;2022-08-19T03:20:40;7.63;;;6.00;;
30543;SDS011;43388;46.308;4.600;2022-08-19T03:23:06;6.30;;;5.72;;
30543;SDS011;43388;46.308;4.600;2022-08-19T03:25:37;6.95;;;6.25;;
30543;SDS011;43388;46.308;4.600;2022-08-19T03:28:03;6.53;;;5.88;;
30543;SDS011;43388;46.308;4.600;2022-08-19T03:30:29;7.15;;;5.47;;
30543;SDS011;43388;46.308;4.600;2022-08-19T03:32:55;8.63;;;6.03;;
30543;SDS011;43388;46.308;4.600;2022-08-19T03:35:22;6.95;;;5.55;;
30543;SDS011;43388;46.308;4.600;2022-08-19T03:37:48;7.25;;;5.50;;
30543;SDS011;43388;46.308;4.600;2022-08-19T03:40:14;7.38;;;6.22;;
30543;SDS011;43388;46.308;4.600;2022-08-19T03:42:40;7.13;;;5.95;;
30543;SDS011;43388;46.308;4.600;2022-08-19T03:45:07;6.90;;;5.22;;
30543;SDS011;43388;46.308;4.600;2022-08-19T03:47:35;7.72;;;6.00;;
30543;SDS011;43388;46.308;4.600;2022-08-19T03:50:02;7.00;;;5.70;;
30543;SDS011;43388;46.308;4.600;2022-08-19T03:52:29;6.10;;;5.50;;
30543;SDS011;43388;46.308;4.600;2022-08-19T03:54:55;7.90;;;6.13;;
30543;SDS011;43388;46.308;4.600;2022-08-19T03:57:21;7.03;;;6.43;;
30543;SDS011;43388;46.308;4.600;2022-08-19T03:59:47;7.28;;;6.50;;
30543;SDS011;43388;46.308;4.600;2022-08-19T04:02:13;8.23;;;6.60;;
30543;SDS011;43388;46.308;4.600;2022-08-19T04:04:40;7.43;;;6.72;;
30543;SDS011;43388;46.308;4.600;2022-08-19T04:07:08;7.50;;;6.80;;
30543;SDS011;43388;46.308;4.600;2022-08-19T04:09:34;10.95;;;7.28;;
30543;SDS011;43388;46.308;4.600;2022-08-19T04:12:04;8.10;;;7.07;;
30543;SDS011;43388;46.308;4.600;2022-08-19T04:14:30;8.55;;;7.00;;
30543;SDS011;43388;46.308;4.600;2022-08-19T04:16:57;8.50;;;7.80;;
30543;SDS011;43388;46.308;4.600;2022-08-19T04:19:24;11.60;;;7.45;;
30543;SDS011;43388;46.308;4.600;2022-08-19T04:21:51;8.68;;;7.72;;
30543;SDS011;43388;46.308;4.600;2022-08-19T04:24:17;8.00;;;7.18;;
30543;SDS011;43388;46.308;4.600;2022-08-19T04:26:44;11.10;;;8.20;;
30543;SDS011;43388;46.308;4.600;2022-08-19T04:29:12;8.52;;;7.70;;
30543;SDS011;43388;46.308;4.600;2022-08-19T04:31:39;10.52;;;7.55;;
30543;SDS011;43388;46.308;4.600;2022-08-19T04:34:08;8.80;;;7.88;;
30543;SDS011;43388;46.308;4.600;2022-08-19T04:36:38;8.95;;;8.13;;
30543;SDS011;43388;46.308;4.600;2022-08-19T04:39:07;10.20;;;8.65;;
30543;SDS011;43388;46.308;4.600;2022-08-19T04:41:33;9.70;;;8.30;;
30543;SDS011;43388;46.308;4.600;2022-08-19T04:44:18;9.00;;;8.07;;
30543;SDS011;43388;46.308;4.600;2022-08-19T04:46:48;8.80;;;7.90;;
30543;SDS011;43388;46.308;4.600;2022-08-19T04:49:15;9.75;;;8.40;;
30543;SDS011;43388;46.308;4.600;2022-08-19T04:51:42;10.70;;;9.25;;
30543;SDS011;43388;46.308;4.600;2022-08-19T04:54:08;9.55;;;8.50;;
30543;SDS011;43388;46.308;4.600;2022-08-19T04:56:34;8.98;;;7.80;;
30543;SDS011;43388;46.308;4.600;2022-08-19T04:59:01;9.40;;;8.10;;
30543;SDS011;43388;46.308;4.600;2022-08-19T05:01:31;9.75;;;8.43;;
30543;SDS011;43388;46.308;4.600;2022-08-19T05:03:58;10.57;;;9.07;;
30543;SDS011;43388;46.308;4.600;2022-08-19T05:06:25;9.60;;;8.70;;
30543;SDS011;43388;46.308;4.600;2022-08-19T05:08:52;12.85;;;9.32;;
30543;SDS011;43388;46.308;4.600;2022-08-19T05:11:19;11.88;;;8.70;;
30543;SDS011;43388;46.308;4.600;2022-08-19T05:13:46;10.55;;;9.35;;
30543;SDS011;43388;46.308;4.600;2022-08-19T05:16:14;10.63;;;9.25;;
30543;SDS011;43388;46.308;4.600;2022-08-19T05:18:40;10.80;;;9.27;;
30543;SDS011;43388;46.308;4.600;2022-08-19T05:24:10;10.27;;;9.23;;
30543;SDS011;43388;46.308;4.600;2022-08-19T05:26:42;10.10;;;9.20;;
30543;SDS011;43388;46.308;4.600;2022-08-19T05:29:11;10.75;;;9.23;;
30543;SDS011;43388;46.308;4.600;2022-08-19T05:31:37;11.43;;;10.23;;
30543;SDS011;43388;46.308;4.600;2022-08-19T05:34:03;10.75;;;9.60;;
30543;SDS011;43388;46.308;4.600;2022-08-19T05:36:34;11.38;;;10.25;;
30543;SDS011;43388;46.308;4.600;2022-08-19T05:39:02;10.98;;;9.98;;
30543;SDS011;43388;46.308;4.600;2022-08-19T05:41:29;15.52;;;10.90;;
30543;SDS011;43388;46.308;4.600;2022-08-19T05:44:00;12.73;;;10.35;;
30543;SDS011;43388;46.308;4.600;2022-08-19T05:46:26;11.95;;;10.13;;
30543;SDS011;43388;46.308;4.600;2022-08-19T05:48:52;11.80;;;10.65;;
30543;SDS011;43388;46.308;4.600;2022-08-19T05:51:22;10.68;;;9.68;;
30543;SDS011;43388;46.308;4.600;2022-08-19T05:53:48;11.50;;;10.40;;
30543;SDS011;43388;46.308;4.600;2022-08-19T05:56:15;12.50;;;10.55;;
30543;SDS011;43388;46.308;4.600;2022-08-19T05:58:41;11.82;;;10.60;;
30543;SDS011;43388;46.308;4.600;2022-08-19T06:01:10;11.35;;;10.25;;
30543;SDS011;43388;46.308;4.600;2022-08-19T06:03:36;12.30;;;10.77;;
30543;SDS011;43388;46.308;4.600;2022-08-19T06:06:04;13.18;;;11.77;;
30543;SDS011;43388;46.308;4.600;2022-08-19T06:08:31;12.02;;;10.90;;
30543;SDS011;43388;46.308;4.600;2022-08-19T06:10:57;13.18;;;12.00;;
30543;SDS011;43388;46.308;4.600;2022-08-19T06:13:24;16.13;;;11.50;;
30543;SDS011;43388;46.308;4.600;2022-08-19T06:15:50;12.43;;;11.02;;
30543;SDS011;43388;46.308;4.600;2022-08-19T06:18:16;12.68;;;11.48;;
30543;SDS011;43388;46.308;4.600;2022-08-19T06:20:42;13.25;;;11.65;;
30543;SDS011;43388;46.308;4.600;2022-08-19T06:23:08;13.40;;;12.05;;
30543;SDS011;43388;46.308;4.600;2022-08-19T06:25:35;11.60;;;10.60;;
30543;SDS011;43388;46.308;4.600;2022-08-19T06:28:01;13.65;;;11.52;;
30543;SDS011;43388;46.308;4.600;2022-08-19T06:30:27;11.90;;;10.57;;
30543;SDS011;43388;46.308;4.600;2022-08-19T06:32:53;14.45;;;12.60;;
30543;SDS011;43388;46.308;4.600;2022-08-19T06:35:19;14.05;;;12.32;;
30543;SDS011;43388;46.308;4.600;2022-08-19T06:37:45;15.02;;;13.50;;
30543;SDS011;43388;46.308;4.600;2022-08-19T06:40:12;17.73;;;13.93;;
30543;SDS011;43388;46.308;4.600;2022-08-19T06:42:38;15.38;;;13.77;;
30543;SDS011;43388;46.308;4.600;2022-08-19T06:45:05;14.57;;;12.75;;
30543;SDS011;43388;46.308;4.600;2022-08-19T06:47:33;13.98;;;12.77;;
30543;SDS011;43388;46.308;4.600;2022-08-19T06:49:59;14.45;;;12.90;;
30543;SDS011;43388;46.308;4.600;2022-08-19T06:52:28;17.65;;;13.38;;
30543;SDS011;43388;46.308;4.600;2022-08-19T06:54:54;15.07;;;13.65;;
30543;SDS011;43388;46.308;4.600;2022-08-19T06:57:21;18.27;;;15.15;;
30543;SDS011;43388;46.308;4.600;2022-08-19T06:59:47;15.00;;;13.65;;
30543;SDS011;43388;46.308;4.600;2022-08-19T07:02:13;16.13;;;14.65;;
30543;SDS011;43388;46.308;4.600;2022-08-19T07:04:39;15.73;;;14.13;;
30543;SDS011;43388;46.308;4.600;2022-08-19T07:07:07;15.70;;;14.20;;
30543;SDS011;43388;46.308;4.600;2022-08-19T07:09:34;16.20;;;14.60;;
30543;SDS011;43388;46.308;4.600;2022-08-19T07:12:02;17.08;;;15.25;;
30543;SDS011;43388;46.308;4.600;2022-08-19T07:14:29;17.25;;;15.50;;
30543;SDS011;43388;46.308;4.600;2022-08-19T07:16:55;16.70;;;15.05;;
30543;SDS011;43388;46.308;4.600;2022-08-19T07:19:22;17.40;;;15.77;;
30543;SDS011;43388;46.308;4.600;2022-08-19T07:21:50;18.67;;;16.58;;
30543;SDS011;43388;46.308;4.600;2022-08-19T07:24:20;16.48;;;14.98;;
30543;SDS011;43388;46.308;4.600;2022-08-19T07:26:48;18.27;;;16.38;;
30543;SDS011;43388;46.308;4.600;2022-08-19T07:29:16;19.35;;;17.42;;
30543;SDS011;43388;46.308;4.600;2022-08-19T07:31:42;20.88;;;17.23;;
30543;SDS011;43388;46.308;4.600;2022-08-19T07:34:09;22.55;;;18.58;;
30543;SDS011;43388;46.308;4.600;2022-08-19T07:36:37;20.33;;;18.25;;
30543;SDS011;43388;46.308;4.600;2022-08-19T07:39:08;20.20;;;18.08;;
30543;SDS011;43388;46.308;4.600;2022-08-19T07:41:35;21.27;;;19.17;;
30543;SDS011;43388;46.308;4.600;2022-08-19T07:44:02;20.08;;;18.05;;
30543;SDS011;43388;46.308;4.600;2022-08-19T07:46:31;20.83;;;18.77;;
30543;SDS011;43388;46.308;4.600;2022-08-19T07:48:58;20.52;;;18.55;;
30543;SDS011;43388;46.308;4.600;2022-08-19T07:51:25;21.65;;;18.50;;
30543;SDS011;43388;46.308;4.600;2022-08-19T07:53:51;19.63;;;17.83;;
30543;SDS011;43388;46.308;4.600;2022-08-19T07:56:18;21.50;;;19.25;;
30543;SDS011;43388;46.308;4.600;2022-08-19T07:58:45;20.75;;;18.65;;
30543;SDS011;43388;46.308;4.600;2022-08-19T08:01:14;22.48;;;20.25;;
30543;SDS011;43388;46.308;4.600;2022-08-19T08:03:40;23.80;;;19.95;;
30543;SDS011;43388;46.308;4.600;2022-08-19T08:06:25;22.17;;;19.92;;
30543;SDS011;43388;46.308;4.600;2022-08-19T08:09:10;21.33;;;16.85;;
30543;SDS011;43388;46.308;4.600;2022-08-19T08:11:40;18.60;;;16.80;;
30543;SDS011;43388;46.308;4.600;2022-08-19T08:14:07;20.58;;;18.67;;
30543;SDS011;43388;46.308;4.600;2022-08-19T08:16:36;25.55;;;18.55;;
30543;SDS011;43388;46.308;4.600;2022-08-19T08:19:04;19.70;;;17.80;;
30543;SDS011;43388;46.308;4.600;2022-08-19T08:21:31;21.58;;;18.50;;
30543;SDS011;43388;46.308;4.600;2022-08-19T08:23:57;21.60;;;19.00;;
30543;SDS011;43388;46.308;4.600;2022-08-19T08:26:23;21.30;;;19.38;;
30543;SDS011;43388;46.308;4.600;2022-08-19T08:28:50;21.67;;;19.52;;
30543;SDS011;43388;46.308;4.600;2022-08-19T08:31:16;19.95;;;18.25;;
30543;SDS011;43388;46.308;4.600;2022-08-19T08:33:44;19.73;;;16.95;;
30543;SDS011;43388;46.308;4.600;2022-08-19T08:36:10;19.48;;;17.45;;
30543;SDS011;43388;46.308;4.600;2022-08-19T08:38:36;20.08;;;17.98;;
30543;SDS011;43388;46.308;4.600;2022-08-19T08:43:44;17.98;;;16.30;;
30543;SDS011;43388;46.308;4.600;2022-08-19T08:51:23;20.00;;;17.88;;
30543;SDS011;43388;46.308;4.600;2022-08-19T08:53:51;22.60;;;19.95;;
30543;SDS011;43388;46.308;4.600;2022-08-19T08:56:18;19.98;;;18.00;;
30543;SDS011;43388;46.308;4.600;2022-08-19T08:58:47;21.02;;;18.92;;
30543;SDS011;43388;46.308;4.600;2022-08-19T09:01:14;20.33;;;18.40;;
30543;SDS011;43388;46.308;4.600;2022-08-19T09:03:41;20.73;;;18.90;;
30543;SDS011;43388;46.308;4.600;2022-08-19T09:06:11;19.65;;;17.77;;
30543;SDS011;43388;46.308;4.600;2022-08-19T09:11:13;21.02;;;19.00;;
30543;SDS011;43388;46.308;4.600;2022-08-19T09:14:02;20.13;;;18.17;;
30543;SDS011;43388;46.308;4.600;2022-08-19T09:16:30;22.00;;;19.38;;
30543;SDS011;43388;46.308;4.600;2022-08-19T09:18:58;20.65;;;18.55;;
30543;SDS011;43388;46.308;4.600;2022-08-19T09:21:26;20.63;;;18.50;;
30543;SDS011;43388;46.308;4.600;2022-08-19T09:23:53;20.20;;;18.20;;
30543;SDS011;43388;46.308;4.600;2022-08-19T09:26:21;19.70;;;17.70;;
30543;SDS011;43388;46.308;4.600;2022-08-19T09:28:48;20.67;;;17.40;;
30543;SDS011;43388;46.308;4.600;2022-08-19T09:31:19;19.00;;;17.23;;
30543;SDS011;43388;46.308;4.600;2022-08-19T09:33:46;19.65;;;17.60;;
30543;SDS011;43388;46.308;4.600;2022-08-19T09:36:13;20.02;;;18.08;;
30543;SDS011;43388;46.308;4.600;2022-08-19T09:38:40;20.67;;;17.92;;
30543;SDS011;43388;46.308;4.600;2022-08-19T09:41:08;21.05;;;17.33;;
30543;SDS011;43388;46.308;4.600;2022-08-19T09:43:34;19.38;;;17.33;;
30543;SDS011;43388;46.308;4.600;2022-08-19T09:46:02;19.23;;;17.33;;
30543;SDS011;43388;46.308;4.600;2022-08-19T09:48:30;18.42;;;16.52;;
30543;SDS011;43388;46.308;4.600;2022-08-19T09:51:01;19.33;;;17.52;;
30543;SDS011;43388;46.308;4.600;2022-08-19T09:53:28;17.77;;;15.75;;
30543;SDS011;43388;46.308;4.600;2022-08-19T09:55:56;18.88;;;16.90;;
30543;SDS011;43388;46.308;4.600;2022-08-19T09:58:23;17.23;;;15.55;;
30543;SDS011;43388;46.308;4.600;2022-08-19T10:00:53;16.13;;;14.55;;
30543;SDS011;43388;46.308;4.600;2022-08-19T10:03:19;16.90;;;14.82;;
30543;SDS011;43388;46.308;4.600;2022-08-19T10:05:45;17.52;;;14.30;;
30543;SDS011;43388;46.308;4.600;2022-08-19T10:08:18;14.55;;;13.13;;
30543;SDS011;43388;46.308;4.600;2022-08-19T10:10:45;16.13;;;14.07;;
30543;SDS011;43388;46.308;4.600;2022-08-19T10:13:12;14.95;;;13.52;;
30543;SDS011;43388;46.308;4.600;2022-08-19T10:15:38;12.82;;;11.27;;
30543;SDS011;43388;46.308;4.600;2022-08-19T10:18:06;13.60;;;11.98;;
30543;SDS011;43388;46.308;4.600;2022-08-19T10:20:32;13.82;;;11.65;;
30543;SDS011;43388;46.308;4.600;2022-08-19T10:23:00;14.00;;;11.57;;
30543;SDS011;43388;46.308;4.600;2022-08-19T10:25:26;12.57;;;11.48;;
30543;SDS011;43388;46.308;4.600;2022-08-19T10:27:53;12.52;;;10.32;;
30543;SDS011;43388;46.308;4.600;2022-08-19T10:30:19;13.73;;;12.07;;
30543;SDS011;43388;46.308;4.600;2022-08-19T10:32:45;13.38;;;12.20;;
30543;SDS011;43388;46.308;4.600;2022-08-19T10:35:12;11.70;;;10.50;;
30543;SDS011;43388;46.308;4.600;2022-08-19T10:37:39;11.00;;;9.90;;
30543;SDS011;43388;46.308;4.600;2022-08-19T10:40:06;11.93;;;9.95;;
30543;SDS011;43388;46.308;4.600;2022-08-19T10:42:33;11.10;;;9.98;;
30543;SDS011;43388;46.308;4.600;2022-08-19T10:44:59;12.98;;;8.70;;
30543;SDS011;43388;46.308;4.600;2022-08-19T10:47:25;10.88;;;9.65;;
30543;SDS011;43388;46.308;4.600;2022-08-19T10:49:52;11.18;;;9.77;;
30543;SDS011;43388;46.308;4.600;2022-08-19T10:52:37;13.20;;;9.65;;
30543;SDS011;43388;46.308;4.600;2022-08-19T10:55:04;10.10;;;9.10;;
30543;SDS011;43388;46.308;4.600;2022-08-19T10:57:49;15.82;;;9.90;;
30543;SDS011;43388;46.308;4.600;2022-08-19T11:00:15;9.48;;;8.70;;
30543;SDS011;43388;46.308;4.600;2022-08-19T11:02:42;14.32;;;10.30;;
30543;SDS011;43388;46.308;4.600;2022-08-19T11:05:08;10.07;;;9.18;;
30543;SDS011;43388;46.308;4.600;2022-08-19T11:07:38;11.32;;;10.13;;
30543;SDS011;43388;46.308;4.600;2022-08-19T11:10:05;13.35;;;10.18;;
30543;SDS011;43388;46.308;4.600;2022-08-19T11:12:31;13.00;;;8.30;;
30543;SDS011;43388;46.308;4.600;2022-08-19T11:14:58;9.77;;;8.65;;
30543;SDS011;43388;46.308;4.600;2022-08-19T11:17:24;9.63;;;7.72;;
30543;SDS011;43388;46.308;4.600;2022-08-19T11:19:50;8.50;;;7.80;;
30543;SDS011;43388;46.308;4.600;2022-08-19T11:22:16;8.93;;;8.02;;
30543;SDS011;43388;46.308;4.600;2022-08-19T11:24:42;12.82;;;7.65;;
30543;SDS011;43388;46.308;4.600;2022-08-19T11:27:08;11.32;;;7.60;;
30543;SDS011;43388;46.308;4.600;2022-08-19T11:29:37;10.68;;;7.32;;
30543;SDS011;43388;46.308;4.600;2022-08-19T11:32:04;7.63;;;6.43;;
30543;SDS011;43388;46.308;4.600;2022-08-19T11:34:31;8.25;;;7.03;;
30543;SDS011;43388;46.308;4.600;2022-08-19T11:36:57;8.25;;;7.55;;
30543;SDS011;43388;46.308;4.600;2022-08-19T11:39:25;7.85;;;6.75;;
30543;SDS011;43388;46.308;4.600;2022-08-19T11:41:51;8.43;;;7.43;;
30543;SDS011;43388;46.308;4.600;2022-08-19T11:44:17;8.43;;;6.25;;
30543;SDS011;43388;46.308;4.600;2022-08-19T11:46:44;8.32;;;5.82;;
30543;SDS011;43388;46.308;4.600;2022-08-19T11:49:11;8.27;;;7.45;;
30543;SDS011;43388;46.308;4.600;2022-08-19T11:51:37;6.10;;;5.65;;
30543;SDS011;43388;46.308;4.600;2022-08-19T11:54:04;7.95;;;6.60;;
30543;SDS011;43388;46.308;4.600;2022-08-19T11:56:31;8.32;;;6.38;;
30543;SDS011;43388;46.308;4.600;2022-08-19T11:58:57;11.85;;;5.90;;
30543;SDS011;43388;46.308;4.600;2022-08-19T12:01:24;6.18;;;5.00;;
30543;SDS011;43388;46.308;4.600;2022-08-19T12:03:51;7.80;;;5.05;;
30543;SDS011;43388;46.308;4.600;2022-08-19T12:06:19;6.05;;;5.55;;
30543;SDS011;43388;46.308;4.600;2022-08-19T12:08:49;7.50;;;5.13;;
30543;SDS011;43388;46.308;4.600;2022-08-19T12:11:15;5.07;;;4.53;;
30543;SDS011;43388;46.308;4.600;2022-08-19T12:13:41;5.80;;;4.95;;
30543;SDS011;43388;46.308;4.600;2022-08-19T12:16:15;8.27;;;4.88;;
30543;SDS011;43388;46.308;4.600;2022-08-19T12:18:42;6.72;;;4.97;;
30543;SDS011;43388;46.308;4.600;2022-08-19T12:21:12;6.03;;;4.50;;
30543;SDS011;43388;46.308;4.600;2022-08-19T12:23:39;6.50;;;4.03;;
30543;SDS011;43388;46.308;4.600;2022-08-19T12:26:05;6.63;;;4.30;;
30543;SDS011;43388;46.308;4.600;2022-08-19T12:28:32;8.98;;;3.92;;
30543;SDS011;43388;46.308;4.600;2022-08-19T12:30:58;4.10;;;3.80;;
30543;SDS011;43388;46.308;4.600;2022-08-19T12:33:24;3.90;;;3.50;;
30543;SDS011;43388;46.308;4.600;2022-08-19T12:35:52;4.50;;;3.70;;
30543;SDS011;43388;46.308;4.600;2022-08-19T12:38:18;6.53;;;3.83;;
30543;SDS011;43388;46.308;4.600;2022-08-19T12:40:45;4.78;;;3.92;;
30543;SDS011;43388;46.308;4.600;2022-08-19T12:43:12;4.90;;;3.40;;
30543;SDS011;43388;46.308;4.600;2022-08-19T12:45:38;3.85;;;3.47;;
30543;SDS011;43388;46.308;4.600;2022-08-19T12:48:05;3.65;;;3.35;;
30543;SDS011;43388;46.308;4.600;2022-08-19T12:50:31;6.75;;;3.38;;
30543;SDS011;43388;46.308;4.600;2022-08-19T12:52:57;7.25;;;3.30;;
30543;SDS011;43388;46.308;4.600;2022-08-19T12:55:23;4.10;;;3.25;;
30543;SDS011;43388;46.308;4.600;2022-08-19T12:57:50;3.65;;;3.45;;
30543;SDS011;43388;46.308;4.600;2022-08-19T13:00:17;5.55;;;3.42;;
30543;SDS011;43388;46.308;4.600;2022-08-19T13:02:46;5.22;;;3.13;;
30543;SDS011;43388;46.308;4.600;2022-08-19T13:05:13;3.53;;;2.92;;
30543;SDS011;43388;46.308;4.600;2022-08-19T13:07:41;3.20;;;2.92;;
30543;SDS011;43388;46.308;4.600;2022-08-19T13:10:09;3.22;;;2.90;;
30543;SDS011;43388;46.308;4.600;2022-08-19T13:12:36;5.13;;;2.47;;
30543;SDS011;43388;46.308;4.600;2022-08-19T13:15:03;3.03;;;2.83;;
30543;SDS011;43388;46.308;4.600;2022-08-19T13:17:29;5.20;;;2.70;;
30543;SDS011;43388;46.308;4.600;2022-08-19T13:19:55;4.03;;;2.50;;
30543;SDS011;43388;46.308;4.600;2022-08-19T13:22:21;3.25;;;2.33;;
30543;SDS011;43388;46.308;4.600;2022-08-19T13:24:48;5.22;;;2.60;;
30543;SDS011;43388;46.308;4.600;2022-08-19T13:27:14;3.03;;;2.80;;
30543;SDS011;43388;46.308;4.600;2022-08-19T13:29:41;2.88;;;2.38;;
30543;SDS011;43388;46.308;4.600;2022-08-19T13:32:26;4.05;;;2.55;;
30543;SDS011;43388;46.308;4.600;2022-08-19T13:35:10;3.45;;;2.03;;
30543;SDS011;43388;46.308;4.600;2022-08-19T13:37:37;5.20;;;2.50;;
30543;SDS011;43388;46.308;4.600;2022-08-19T13:40:19;2.92;;;2.38;;
30543;SDS011;43388;46.308;4.600;2022-08-19T13:42:48;2.67;;;2.50;;
30543;SDS011;43388;46.308;4.600;2022-08-19T13:45:18;2.97;;;2.67;;
30543;SDS011;43388;46.308;4.600;2022-08-19T13:47:48;2.33;;;2.13;;
30543;SDS011;43388;46.308;4.600;2022-08-19T13:50:16;2.63;;;2.30;;
30543;SDS011;43388;46.308;4.600;2022-08-19T13:52:42;2.60;;;2.40;;
30543;SDS011;43388;46.308;4.600;2022-08-19T13:55:09;3.10;;;2.53;;
30543;SDS011;43388;46.308;4.600;2022-08-19T13:57:35;4.78;;;2.20;;
30543;SDS011;43388;46.308;4.600;2022-08-19T14:00:04;4.93;;;2.38;;
30543;SDS011;43388;46.308;4.600;2022-08-19T14:02:30;2.50;;;2.30;;
30543;SDS011;43388;46.308;4.600;2022-08-19T14:04:56;4.60;;;2.53;;
30543;SDS011;43388;46.308;4.600;2022-08-19T14:07:23;3.47;;;2.78;;
30543;SDS011;43388;46.308;4.600;2022-08-19T14:09:50;3.13;;;2.83;;
30543;SDS011;43388;46.308;4.600;2022-08-19T14:12:19;2.58;;;2.30;;
30543;SDS011;43388;46.308;4.600;2022-08-19T14:14:46;4.03;;;3.30;;
30543;SDS011;43388;46.308;4.600;2022-08-19T14:17:12;2.75;;;2.55;;
30543;SDS011;43388;46.308;4.600;2022-08-19T14:19:38;6.93;;;3.80;;
30543;SDS011;43388;46.308;4.600;2022-08-19T14:22:04;4.22;;;2.75;;
30543;SDS011;43388;46.308;4.600;2022-08-19T14:24:30;5.13;;;2.90;;
30543;SDS011;43388;46.308;4.600;2022-08-19T14:26:59;7.65;;;4.50;;
30543;SDS011;43388;46.308;4.600;2022-08-19T14:29:25;4.32;;;3.92;;
30543;SDS011;43388;46.308;4.600;2022-08-19T14:31:53;4.45;;;3.80;;
30543;SDS011;43388;46.308;4.600;2022-08-19T14:34:21;4.22;;;3.33;;
30543;SDS011;43388;46.308;4.600;2022-08-19T14:36:47;5.72;;;3.75;;
30543;SDS011;43388;46.308;4.600;2022-08-19T14:39:13;5.55;;;3.30;;
30543;SDS011;43388;46.308;4.600;2022-08-19T14:41:39;4.13;;;3.72;;
30543;SDS011;43388;46.308;4.600;2022-08-19T14:44:07;5.22;;;3.60;;
30543;SDS011;43388;46.308;4.600;2022-08-19T14:46:35;9.82;;;4.05;;
30543;SDS011;43388;46.308;4.600;2022-08-19T14:49:01;7.20;;;3.80;;
30543;SDS011;43388;46.308;4.600;2022-08-19T14:51:27;3.92;;;3.53;;
30543;SDS011;43388;46.308;4.600;2022-08-19T14:53:53;5.78;;;4.03;;
30543;SDS011;43388;46.308;4.600;2022-08-19T14:56:21;8.13;;;3.78;;